Time;durP1;ratioP1;P1;durP2;ratioP2;P2;SDS_P1;SDS_P2;PMS_P1;PMS_P2;Temp;Humidity;BMP_temperature;BMP_pressure;BME280_temperature;BME280_humidity;BME280_pressure;Samples;Min_cycle;Max_cycle;Signal;HPM_P1;HPM_P2
2022/08/31 00:05:45;;;;;;;3.10;1.50;;;19.40;99.90;;;;;;5073459;28;20413;-88
2022/08/31 00:08:11;;;;;;;3.83;1.23;;;19.40;99.90;;;;;;5071919;28;20035;-88
2022/08/31 00:10:39;;;;;;;4.78;1.75;;;19.30;99.90;;;;;;5072948;28;20029;-89
2022/08/31 00:13:06;;;;;;;6.45;1.10;;;19.40;99.90;;;;;;5072151;28;20039;-89
2022/08/31 00:15:32;;;;;;;3.38;1.55;;;19.40;99.90;;;;;;5071360;28;20024;-88
2022/08/31 00:17:58;;;;;;;5.45;1.50;;;19.40;99.90;;;;;;5072226;28;20101;-90
2022/08/31 00:20:25;;;;;;;6.65;1.33;;;19.50;99.90;;;;;;5071609;28;20029;-84
2022/08/31 00:22:51;;;;;;;5.90;1.77;;;19.50;99.90;;;;;;5070169;28;20070;-86
2022/08/31 00:25:17;;;;;;;4.07;1.35;;;19.50;99.90;;;;;;5066075;28;20064;-85
2022/08/31 00:27:42;;;;;;;3.28;1.08;;;19.50;99.90;;;;;;5070653;28;20447;-86
2022/08/31 00:30:09;;;;;;;4.40;1.35;;;19.50;99.90;;;;;;5069244;28;20556;-87
2022/08/31 00:32:34;;;;;;;4.95;1.80;;;19.50;99.90;;;;;;5068323;28;20054;-88
2022/08/31 00:35:00;;;;;;;6.63;1.20;;;19.60;99.90;;;;;;5069286;28;20052;-87
2022/08/31 00:37:26;;;;;;;2.72;1.30;;;19.50;99.90;;;;;;5071304;28;20505;-87
2022/08/31 00:39:51;;;;;;;3.67;1.30;;;19.50;99.90;;;;;;5071127;28;20036;-87
2022/08/31 00:42:18;;;;;;;5.43;1.70;;;19.50;99.90;;;;;;5070736;28;20052;-86
2022/08/31 00:44:44;;;;;;;4.68;1.42;;;19.50;99.90;;;;;;5068852;28;20036;-84
2022/08/31 00:47:10;;;;;;;6.78;1.70;;;19.50;99.90;;;;;;5069577;28;20055;-85
2022/08/31 00:49:38;;;;;;;3.42;1.85;;;19.60;99.90;;;;;;5069353;28;20081;-85
2022/08/31 00:52:09;;;;;;;3.28;1.23;;;19.70;99.90;;;;;;5070365;28;20053;-85
2022/08/31 00:54:54;;;;;;;2.97;1.48;;;19.70;99.90;;;;;;5069204;28;20117;-85
2022/08/31 00:57:20;;;;;;;5.32;1.45;;;19.70;99.90;;;;;;5068288;28;20083;-85
2022/08/31 00:59:47;;;;;;;3.65;1.70;;;19.80;99.90;;;;;;5056746;28;20021;-86
2022/08/31 01:02:12;;;;;;;3.28;1.60;;;19.80;99.90;;;;;;5091956;28;20516;-86
2022/08/31 01:04:38;;;;;;;3.22;1.60;;;19.70;99.90;;;;;;5073007;28;20028;-87
2022/08/31 01:07:07;;;;;;;3.92;1.33;;;19.70;99.90;;;;;;5069548;28;20539;-85
2022/08/31 01:09:37;;;;;;;3.25;1.50;;;19.70;99.90;;;;;;5069555;28;20025;-85
2022/08/31 01:12:05;;;;;;;3.30;1.33;;;19.80;99.90;;;;;;5069476;28;20389;-83
2022/08/31 01:14:31;;;;;;;5.15;1.52;;;19.80;99.90;;;;;;5068610;28;20036;-84
2022/08/31 01:16:56;;;;;;;3.05;1.30;;;19.80;99.90;;;;;;5068534;28;20032;-85
2022/08/31 01:19:49;;;;;;;4.38;1.52;;;19.80;99.90;;;;;;5069035;28;20632;-84
2022/08/31 01:22:27;;;;;;;4.43;1.83;;;19.80;99.90;;;;;;5069932;28;20036;-85
2022/08/31 01:24:54;;;;;;;9.23;1.33;;;19.90;99.90;;;;;;5069396;28;20040;-85
2022/08/31 01:27:27;;;;;;;4.18;1.45;;;19.90;99.90;;;;;;5067625;28;20517;-86
2022/08/31 01:29:53;;;;;;;6.25;1.55;;;20.00;99.90;;;;;;5068963;28;20044;-86
2022/08/31 01:32:19;;;;;;;3.50;1.40;;;20.00;99.90;;;;;;5069095;28;20037;-83
2022/08/31 01:34:44;;;;;;;4.07;1.50;;;20.00;99.90;;;;;;5069685;28;20532;-85
2022/08/31 01:37:11;;;;;;;2.58;1.60;;;20.00;99.90;;;;;;5070695;28;20028;-87
2022/08/31 01:39:36;;;;;;;3.33;1.77;;;20.10;99.90;;;;;;5070912;28;20056;-87
2022/08/31 01:42:03;;;;;;;8.60;1.52;;;20.10;99.90;;;;;;5089971;28;20066;-88
2022/08/31 01:44:29;;;;;;;5.63;1.65;;;20.10;99.90;;;;;;5089665;28;20130;-83
2022/08/31 01:46:55;;;;;;;4.70;1.50;;;20.10;99.90;;;;;;5088302;28;20493;-83
2022/08/31 01:49:22;;;;;;;2.03;1.30;;;20.10;99.90;;;;;;5073776;28;20024;-86
2022/08/31 01:51:49;;;;;;;3.35;1.45;;;20.10;99.90;;;;;;5069519;28;20025;-85
2022/08/31 01:54:15;;;;;;;4.57;1.60;;;20.10;99.90;;;;;;5068729;28;20028;-84
2022/08/31 01:56:46;;;;;;;3.05;1.70;;;20.10;99.90;;;;;;5068292;28;20481;-84
2022/08/31 01:59:13;;;;;;;4.53;1.92;;;20.10;99.90;;;;;;5070047;28;20025;-85
2022/08/31 02:01:45;;;;;;;4.10;1.40;;;20.00;99.90;;;;;;5068549;28;20037;-84
2022/08/31 02:04:13;;;;;;;6.60;2.17;;;19.90;99.90;;;;;;5068749;28;20511;-84
2022/08/31 02:06:45;;;;;;;3.97;1.48;;;20.00;99.90;;;;;;5069230;28;20025;-85
2022/08/31 02:09:11;;;;;;;5.60;1.65;;;19.90;99.90;;;;;;5068763;28;20115;-85
2022/08/31 02:11:37;;;;;;;3.55;1.60;;;19.80;99.90;;;;;;5068270;28;20119;-84
2022/08/31 02:14:03;;;;;;;5.43;1.33;;;19.80;99.90;;;;;;5068316;28;20374;-84
2022/08/31 02:16:28;;;;;;;3.42;1.77;;;19.70;99.90;;;;;;5068119;28;20634;-84
2022/08/31 02:18:54;;;;;;;3.70;1.67;;;19.70;99.90;;;;;;5068329;28;20132;-85
2022/08/31 02:21:20;;;;;;;3.33;1.83;;;19.70;99.90;;;;;;5067730;28;20432;-85
2022/08/31 02:23:46;;;;;;;3.75;1.90;;;19.70;99.90;;;;;;5084913;28;20028;-85
2022/08/31 02:26:13;;;;;;;6.35;1.50;;;19.60;99.90;;;;;;5068101;28;20042;-84
2022/08/31 02:28:39;;;;;;;4.25;1.30;;;19.60;99.90;;;;;;5084581;28;20115;-85
2022/08/31 02:31:05;;;;;;;4.07;1.90;;;19.60;99.90;;;;;;5068178;28;20048;-84
2022/08/31 02:33:30;;;;;;;3.25;1.60;;;19.60;99.90;;;;;;5069382;28;20055;-85
2022/08/31 02:35:56;;;;;;;2.53;1.45;;;19.50;99.90;;;;;;5068466;28;20044;-84
2022/08/31 02:38:22;;;;;;;4.15;1.40;;;19.50;99.90;;;;;;5069219;28;20039;-84
2022/08/31 02:40:48;;;;;;;2.80;1.48;;;19.50;99.90;;;;;;5072178;28;20031;-85
2022/08/31 02:43:14;;;;;;;3.83;1.77;;;19.50;99.90;;;;;;5072381;28;20116;-84
2022/08/31 02:45:40;;;;;;;5.80;1.92;;;19.50;99.90;;;;;;5072371;28;20120;-86
2022/08/31 02:48:08;;;;;;;4.72;1.58;;;19.50;99.90;;;;;;5072758;28;20059;-85
2022/08/31 02:50:42;;;;;;;4.40;1.45;;;19.40;99.90;;;;;;5073456;28;20020;-86
2022/08/31 02:53:10;;;;;;;4.03;2.00;;;19.40;99.90;;;;;;5072348;28;20040;-86
2022/08/31 02:55:36;;;;;;;3.78;1.70;;;19.30;99.90;;;;;;5072997;28;20027;-86
2022/08/31 02:58:03;;;;;;;7.20;1.92;;;19.20;99.90;;;;;;5073016;28;20120;-86
2022/08/31 03:00:29;;;;;;;3.83;1.60;;;19.10;99.90;;;;;;5072954;28;20016;-87
2022/08/31 03:02:54;;;;;;;3.45;1.45;;;19.10;99.90;;;;;;5071558;28;20665;-83
2022/08/31 03:05:20;;;;;;;3.40;1.50;;;19.00;99.90;;;;;;5071894;28;20025;-86
2022/08/31 03:07:48;;;;;;;4.97;1.50;;;18.90;99.90;;;;;;5072393;28;20082;-85
2022/08/31 03:10:15;;;;;;;3.47;1.85;;;18.80;99.90;;;;;;5073015;28;20386;-86
2022/08/31 03:12:41;;;;;;;3.08;1.70;;;18.80;99.90;;;;;;5071988;28;20025;-86
2022/08/31 03:15:08;;;;;;;7.82;2.15;;;18.70;99.90;;;;;;5071837;28;20028;-86
2022/08/31 03:17:35;;;;;;;4.63;1.92;;;18.70;99.90;;;;;;5072216;28;20504;-86
2022/08/31 03:20:01;;;;;;;12.10;1.65;;;18.60;99.90;;;;;;5071863;28;20056;-86
2022/08/31 03:22:28;;;;;;;3.40;1.38;;;18.50;99.90;;;;;;5072028;28;20561;-85
2022/08/31 03:24:53;;;;;;;3.55;1.70;;;18.50;99.90;;;;;;5071062;28;20028;-85
2022/08/31 03:27:19;;;;;;;2.92;1.77;;;18.40;99.90;;;;;;5072719;28;20044;-85
2022/08/31 03:29:45;;;;;;;4.82;2.08;;;18.50;99.90;;;;;;5073264;28;20025;-84
2022/08/31 03:32:10;;;;;;;2.72;1.45;;;18.40;99.90;;;;;;5071029;28;20056;-85
2022/08/31 03:34:36;;;;;;;2.90;1.70;;;18.40;99.90;;;;;;5071437;28;20255;-86
2022/08/31 03:37:03;;;;;;;3.28;2.25;;;18.30;99.90;;;;;;5084541;28;20114;-83
2022/08/31 03:39:28;;;;;;;9.55;2.05;;;18.30;99.90;;;;;;5069299;28;20024;-83
2022/08/31 03:41:54;;;;;;;5.07;2.05;;;18.20;99.90;;;;;;5068959;28;20098;-83
2022/08/31 03:44:22;;;;;;;3.55;1.73;;;18.10;99.90;;;;;;5062809;28;20147;-83
2022/08/31 03:46:49;;;;;;;2.97;1.88;;;18.10;99.90;;;;;;5063548;28;20032;-82
2022/08/31 03:49:17;;;;;;;6.10;2.67;;;18.10;99.90;;;;;;5062773;28;20127;-83
2022/08/31 03:51:44;;;;;;;4.90;2.25;;;18.10;99.90;;;;;;5068150;28;20025;-83
2022/08/31 03:54:10;;;;;;;3.55;2.03;;;18.10;99.90;;;;;;5068424;28;20029;-84
2022/08/31 03:56:36;;;;;;;3.38;1.88;;;18.10;99.90;;;;;;5069519;28;20029;-83
2022/08/31 03:59:02;;;;;;;3.80;2.00;;;18.10;99.90;;;;;;5069433;28;20497;-84
2022/08/31 04:01:28;;;;;;;6.68;3.80;;;18.20;99.90;;;;;;5069307;28;20024;-84
2022/08/31 04:03:54;;;;;;;3.33;2.20;;;18.20;99.90;;;;;;5057947;28;20032;-83
2022/08/31 04:06:20;;;;;;;3.70;2.20;;;18.20;99.90;;;;;;5067516;28;20016;-83
2022/08/31 04:08:46;;;;;;;2.92;1.80;;;18.20;99.90;;;;;;5068609;28;20036;-83
2022/08/31 04:11:15;;;;;;;3.58;2.05;;;18.30;99.90;;;;;;5069516;28;20137;-84
2022/08/31 04:13:41;;;;;;;7.38;3.10;;;18.30;99.90;;;;;;5068273;28;20028;-84
2022/08/31 04:16:11;;;;;;;3.58;2.00;;;18.30;99.90;;;;;;5068015;28;20085;-83
2022/08/31 04:18:42;;;;;;;5.32;2.40;;;18.40;99.90;;;;;;5068181;28;20033;-83
2022/08/31 04:21:12;;;;;;;2.78;1.77;;;18.50;99.90;;;;;;5068836;28;20029;-83
2022/08/31 04:23:39;;;;;;;4.30;1.80;;;18.60;99.90;;;;;;5069154;28;20037;-83
2022/08/31 04:26:05;;;;;;;5.82;1.90;;;18.70;99.90;;;;;;5067725;28;20066;-84
2022/08/31 04:28:31;;;;;;;3.92;1.90;;;18.80;99.90;;;;;;5068566;28;20036;-83
2022/08/31 04:30:57;;;;;;;5.10;1.88;;;18.90;99.90;;;;;;5068126;28;20028;-83
2022/08/31 04:33:22;;;;;;;5.93;2.13;;;19.00;99.90;;;;;;5068758;28;20033;-84
2022/08/31 04:35:48;;;;;;;4.50;1.98;;;19.10;99.90;;;;;;5067573;28;20047;-84
2022/08/31 04:38:14;;;;;;;8.57;2.20;;;19.30;99.90;;;;;;5062389;28;20497;-83
2022/08/31 04:40:42;;;;;;;4.43;2.17;;;19.30;99.90;;;;;;5067648;28;20021;-84
2022/08/31 04:43:08;;;;;;;4.80;1.70;;;19.40;99.90;;;;;;5084448;28;20036;-84
2022/08/31 04:45:33;;;;;;;5.05;1.80;;;19.40;99.90;;;;;;5069177;28;20028;-83
2022/08/31 04:47:59;;;;;;;8.65;1.73;;;19.40;99.90;;;;;;5067948;28;20260;-84
2022/08/31 04:50:25;;;;;;;4.25;2.00;;;19.40;99.90;;;;;;5067586;28;20361;-83
2022/08/31 04:52:50;;;;;;;5.07;1.75;;;19.50;99.90;;;;;;5067762;28;20508;-83
2022/08/31 04:55:16;;;;;;;4.75;1.98;;;19.50;99.90;;;;;;5068288;28;20029;-83
2022/08/31 04:57:42;;;;;;;3.95;2.38;;;19.60;99.90;;;;;;5067088;28;20060;-83
2022/08/31 05:00:09;;;;;;;3.30;1.88;;;19.70;99.90;;;;;;5068179;28;20106;-84
2022/08/31 05:02:35;;;;;;;7.03;1.90;;;19.70;99.90;;;;;;5066555;28;20032;-82
2022/08/31 05:05:02;;;;;;;6.57;1.80;;;19.80;99.90;;;;;;5067906;28;20056;-83
2022/08/31 05:07:27;;;;;;;8.18;2.33;;;19.80;99.90;;;;;;5066254;28;20028;-83
2022/08/31 05:09:53;;;;;;;10.05;1.60;;;19.80;99.90;;;;;;5066869;28;20077;-83
2022/08/31 05:12:19;;;;;;;2.20;1.27;;;19.80;99.90;;;;;;5067366;28;20374;-84
2022/08/31 05:14:44;;;;;;;4.25;1.58;;;20.00;99.90;;;;;;5067032;28;20556;-83
2022/08/31 05:17:10;;;;;;;2.92;1.60;;;20.20;99.90;;;;;;5066734;28;20256;-82
2022/08/31 05:19:36;;;;;;;4.03;1.90;;;20.40;99.90;;;;;;5067075;28;20501;-84
2022/08/31 05:22:02;;;;;;;2.97;1.50;;;20.60;99.90;;;;;;5066600;28;20055;-83
2022/08/31 05:24:29;;;;;;;15.57;2.72;;;20.70;99.90;;;;;;5066681;28;20082;-83
2022/08/31 05:26:55;;;;;;;4.93;2.30;;;20.80;99.90;;;;;;5066966;28;20401;-83
2022/08/31 05:29:25;;;;;;;2.97;2.10;;;21.00;99.90;;;;;;5066798;28;20048;-83
2022/08/31 05:31:51;;;;;;;6.35;2.53;;;21.20;99.90;;;;;;5067697;28;20028;-84
2022/08/31 05:34:17;;;;;;;13.00;2.72;;;21.30;99.90;;;;;;5066333;28;20041;-84
2022/08/31 05:36:45;;;;;;;9.02;1.60;;;21.30;99.90;;;;;;5067400;28;20473;-82
2022/08/31 05:39:12;;;;;;;11.98;2.00;;;21.50;99.90;;;;;;5066464;28;20119;-83
2022/08/31 05:41:41;;;;;;;5.65;2.17;;;21.60;99.90;;;;;;5067006;28;20588;-83
2022/08/31 05:44:07;;;;;;;7.18;2.78;;;21.70;99.90;;;;;;5068440;28;20021;-84
2022/08/31 05:46:33;;;;;;;3.63;1.70;;;21.90;99.90;;;;;;5066490;28;20028;-83
2022/08/31 05:48:59;;;;;;;3.25;1.60;;;22.10;99.90;;;;;;5066652;28;20482;-85
2022/08/31 05:51:24;;;;;;;5.78;1.80;;;22.50;99.90;;;;;;5067794;28;20078;-84
2022/08/31 05:53:50;;;;;;;8.18;2.53;;;23.00;99.90;;;;;;5067069;28;20056;-83
2022/08/31 05:56:23;;;;;;;6.13;1.70;;;23.20;99.90;;;;;;5067017;28;20029;-85
2022/08/31 05:58:50;;;;;;;7.90;2.17;;;23.50;99.70;;;;;;5067547;28;20035;-84
2022/08/31 06:01:30;;;;;;;7.68;2.03;;;23.70;99.90;;;;;;5066835;28;20056;-84
2022/08/31 06:03:57;;;;;;;8.10;1.60;;;23.90;99.80;;;;;;5067679;28;20052;-84
2022/08/31 06:06:23;;;;;;;10.70;1.85;;;24.40;99.30;;;;;;5067272;28;20043;-84
2022/08/31 06:08:50;;;;;;;5.63;1.58;;;25.20;98.80;;;;;;5068755;28;20033;-85
2022/08/31 06:11:19;;;;;;;2.70;1.20;;;25.70;96.80;;;;;;5066532;28;20040;-85
2022/08/31 06:13:46;;;;;;;7.95;1.92;;;26.00;95.60;;;;;;5069238;28;20017;-85
2022/08/31 06:16:12;;;;;;;4.07;1.90;;;26.10;94.10;;;;;;5072493;28;20032;-85
2022/08/31 06:18:39;;;;;;;4.10;1.63;;;26.10;92.50;;;;;;5070783;28;20021;-84
2022/08/31 06:21:11;;;;;;;3.72;1.50;;;25.90;92.70;;;;;;5070585;28;20025;-82
2022/08/31 06:23:41;;;;;;;6.93;2.00;;;25.70;92.20;;;;;;5071374;28;20025;-82
2022/08/31 06:26:11;;;;;;;8.32;1.63;;;25.70;92.40;;;;;;5070318;28;20778;-82
2022/08/31 06:28:38;;;;;;;8.48;1.83;;;26.00;91.80;;;;;;5071053;28;20043;-83
2022/08/31 06:31:10;;;;;;;5.97;1.63;;;26.50;90.50;;;;;;5070931;28;20029;-82
2022/08/31 06:33:37;;;;;;;6.05;1.98;;;26.70;88.80;;;;;;5070125;28;20561;-83
2022/08/31 06:36:07;;;;;;;8.15;2.03;;;26.50;89.50;;;;;;5071133;28;20052;-83
2022/08/31 06:38:33;;;;;;;7.05;1.63;;;26.20;89.60;;;;;;5071054;28;20028;-83
2022/08/31 06:40:58;;;;;;;4.05;1.70;;;26.00;89.50;;;;;;5070090;28;20523;-83
2022/08/31 06:43:24;;;;;;;7.60;2.63;;;25.80;89.90;;;;;;5070385;28;20599;-83
2022/08/31 06:45:50;;;;;;;22.48;3.13;;;25.70;90.70;;;;;;5069822;28;20032;-84
2022/08/31 06:48:16;;;;;;;5.90;2.30;;;25.70;90.90;;;;;;5070488;28;20032;-82
2022/08/31 06:50:41;;;;;;;5.75;1.80;;;25.60;90.60;;;;;;5070131;28;20035;-83
2022/08/31 06:53:08;;;;;;;9.88;2.25;;;25.60;90.50;;;;;;5070197;28;20032;-83
2022/08/31 06:55:34;;;;;;;5.53;1.83;;;25.70;90.50;;;;;;5070098;28;20039;-83
2022/08/31 06:57:59;;;;;;;6.53;2.20;;;25.80;90.40;;;;;;5068812;28;20032;-84
2022/08/31 07:00:25;;;;;;;8.98;2.30;;;26.20;90.10;;;;;;5068367;28;20115;-84
2022/08/31 07:02:51;;;;;;;4.47;1.90;;;26.60;88.50;;;;;;5068811;28;20064;-84
2022/08/31 07:05:16;;;;;;;7.03;1.98;;;27.10;87.30;;;;;;5069880;28;20013;-84
2022/08/31 07:07:42;;;;;;;4.30;1.75;;;27.80;84.50;;;;;;5069703;28;20090;-83
2022/08/31 07:10:09;;;;;;;5.43;1.60;;;28.30;82.10;;;;;;5069929;28;20023;-81
2022/08/31 07:12:35;;;;;;;6.53;2.47;;;29.00;79.40;;;;;;5070378;28;20435;-80
2022/08/31 07:15:01;;;;;;;5.78;1.60;;;29.70;77.40;;;;;;5070150;28;20040;-82
2022/08/31 07:17:26;;;;;;;3.35;1.65;;;30.30;71.60;;;;;;5069651;28;20024;-82
2022/08/31 07:19:52;;;;;;;2.78;1.23;;;30.80;68.90;;;;;;5069706;28;20531;-83
2022/08/31 07:22:17;;;;;;;7.13;1.58;;;31.30;64.00;;;;;;5069914;28;20043;-82
2022/08/31 07:24:43;;;;;;;1.77;0.77;;;31.50;60.00;;;;;;5071330;28;20056;-83
2022/08/31 07:27:17;;;;;;;2.15;1.08;;;31.70;56.90;;;;;;5069941;28;20029;-82
2022/08/31 07:29:42;;;;;;;5.60;1.25;;;31.30;56.70;;;;;;5068942;28;20051;-82
2022/08/31 07:32:11;;;;;;;8.50;1.25;;;31.20;57.00;;;;;;5069530;28;20064;-81
2022/08/31 07:34:37;;;;;;;2.67;1.48;;;31.00;55.30;;;;;;5069983;28;20040;-82
2022/08/31 07:42:43;;;;;;;1.58;0.85;;;30.60;53.90;;;;;;5090961;28;20531;-82
2022/08/31 07:45:16;;;;;;;2.97;1.40;;;30.60;53.50;;;;;;5090212;28;20093;-82
2022/08/31 07:47:44;;;;;;;2.15;1.30;;;30.60;53.20;;;;;;5090298;28;20032;-82
2022/08/31 07:50:11;;;;;;;2.97;1.20;;;30.90;52.60;;;;;;5090416;28;20560;-83
2022/08/31 07:52:45;;;;;;;5.32;1.30;;;31.10;53.80;;;;;;5107141;28;20485;-81
2022/08/31 07:55:12;;;;;;;2.80;1.13;;;31.60;52.00;;;;;;5089430;28;20027;-81
2022/08/31 07:57:42;;;;;;;2.63;1.10;;;31.70;50.60;;;;;;5089350;28;20504;-83
2022/08/31 08:00:10;;;;;;;7.90;1.05;;;31.40;50.50;;;;;;5089391;28;20256;-82
2022/08/31 08:02:37;;;;;;;2.58;1.05;;;31.60;50.80;;;;;;5089614;28;20509;-82
2022/08/31 08:05:08;;;;;;;2.05;1.40;;;31.50;50.90;;;;;;5088758;28;20112;-83
2022/08/31 08:07:36;;;;;;;6.07;1.27;;;31.70;50.40;;;;;;5089009;28;20035;-83
2022/08/31 08:10:06;;;;;;;2.53;1.23;;;31.90;50.30;;;;;;5089317;28;20016;-82
2022/08/31 08:12:35;;;;;;;6.03;1.25;;;32.10;50.30;;;;;;5089345;28;20024;-83
2022/08/31 08:15:03;;;;;;;5.18;1.20;;;32.10;49.40;;;;;;5088603;28;20403;-83
2022/08/31 08:17:29;;;;;;;2.17;1.10;;;32.00;49.90;;;;;;5089086;28;20035;-82
2022/08/31 08:19:55;;;;;;;3.05;1.00;;;31.60;50.90;;;;;;5090277;28;20652;-81
2022/08/31 08:22:20;;;;;;;5.05;1.27;;;30.80;50.00;;;;;;5082014;28;20036;-83
2022/08/31 08:24:46;;;;;;;2.53;1.05;;;30.30;51.90;;;;;;5068677;28;20111;-82
2022/08/31 08:27:13;;;;;;;1.90;1.02;;;30.40;52.30;;;;;;5068551;28;20036;-83
2022/08/31 08:29:40;;;;;;;1.40;1.00;;;30.70;51.90;;;;;;5068002;28;20029;-82
2022/08/31 08:32:07;;;;;;;2.75;1.20;;;31.10;51.50;;;;;;5068814;28;20119;-83
2022/08/31 08:34:33;;;;;;;3.60;1.52;;;31.60;50.80;;;;;;5069114;28;20036;-82
2022/08/31 08:37:00;;;;;;;5.18;1.30;;;31.70;51.50;;;;;;5068006;28;20036;-82
2022/08/31 08:39:26;;;;;;;2.38;1.25;;;31.90;50.30;;;;;;5069250;28;20024;-83
2022/08/31 08:41:55;;;;;;;3.40;1.08;;;31.70;49.70;;;;;;5067897;28;20504;-82
2022/08/31 08:44:24;;;;;;;3.85;1.25;;;31.50;49.50;;;;;;5068083;28;20040;-83
2022/08/31 08:46:53;;;;;;;3.72;1.08;;;31.40;49.50;;;;;;5067659;28;20016;-83
2022/08/31 08:49:34;;;;;;;2.47;1.30;;;31.50;50.20;;;;;;5068466;28;20128;-83
2022/08/31 08:52:37;;;;;;;7.60;1.60;;;31.70;50.50;;;;;;5067648;28;20016;-82
2022/08/31 08:55:17;;;;;;;5.70;1.58;;;31.80;50.80;;;;;;5061488;28;20128;-81
2022/08/31 08:57:45;;;;;;;5.55;1.27;;;31.50;50.30;;;;;;5067698;28;20029;-82
2022/08/31 09:00:22;;;;;;;2.78;1.20;;;31.00;51.30;;;;;;5067391;28;20497;-82
2022/08/31 09:02:57;;;;;;;2.15;0.90;;;30.80;51.50;;;;;;5067014;28;20433;-81
2022/08/31 09:05:33;;;;;;;2.15;1.30;;;30.40;52.20;;;;;;5066334;28;20028;-82
2022/08/31 09:08:31;;;;;;;7.30;1.33;;;30.10;53.00;;;;;;5067516;28;20039;-82
2022/08/31 09:11:05;;;;;;;5.28;1.17;;;30.20;53.10;;;;;;5067371;28;20036;-83
2022/08/31 09:13:40;;;;;;;3.05;1.00;;;30.50;52.50;;;;;;5067770;28;20035;-82
2022/08/31 09:16:24;;;;;;;3.53;1.33;;;31.20;52.10;;;;;;5067406;28;20029;-83
2022/08/31 09:19:08;;;;;;;3.80;1.30;;;31.50;50.50;;;;;;5066698;28;20039;-83
2022/08/31 09:21:40;;;;;;;3.25;1.40;;;31.60;49.50;;;;;;5067518;28;20059;-83
2022/08/31 09:24:10;;;;;;;3.80;1.50;;;31.90;49.30;;;;;;5066394;28;20035;-84
2022/08/31 09:26:54;;;;;;;7.65;1.80;;;32.10;49.70;;;;;;5066523;28;20481;-83
2022/08/31 09:29:23;;;;;;;2.75;1.33;;;32.60;48.90;;;;;;5066280;28;20025;-83
2022/08/31 09:32:05;;;;;;;2.67;1.27;;;32.80;49.80;;;;;;5066941;28;20020;-83
2022/08/31 09:34:36;;;;;;;4.03;1.23;;;32.80;48.00;;;;;;5066228;28;20052;-83
2022/08/31 09:37:21;;;;;;;4.10;1.25;;;32.90;48.00;;;;;;5066253;28;20689;-83
2022/08/31 09:39:50;;;;;;;6.07;1.15;;;32.70;48.70;;;;;;5067195;28;20074;-82
2022/08/31 09:42:29;;;;;;;3.70;1.55;;;32.40;48.70;;;;;;5087294;28;20040;-83
2022/08/31 09:45:00;;;;;;;2.17;1.42;;;32.10;47.90;;;;;;5086700;28;20024;-83
2022/08/31 09:47:47;;;;;;;2.72;1.30;;;32.00;48.70;;;;;;5086345;28;20024;-84
2022/08/31 09:50:23;;;;;;;3.05;1.75;;;32.00;48.70;;;;;;5080877;28;20032;-83
2022/08/31 09:55:33;;;;;;;6.45;2.30;;;32.30;47.80;;;;;;5068175;28;20515;-83
2022/08/31 09:58:03;;;;;;;2.20;1.10;;;32.30;47.70;;;;;;5066106;28;20050;-83
2022/08/31 10:00:41;;;;;;;5.25;1.52;;;32.60;47.90;;;;;;5066503;28;20109;-82
2022/08/31 10:03:07;;;;;;;3.05;1.30;;;33.00;47.30;;;;;;5066478;28;20036;-82
2022/08/31 10:05:39;;;;;;;2.75;1.50;;;33.10;47.30;;;;;;5066130;28;20115;-83
2022/08/31 10:08:32;;;;;;;4.18;1.33;;;33.00;45.90;;;;;;5066966;28;20032;-82
2022/08/31 10:11:10;;;;;;;5.80;1.30;;;32.40;46.60;;;;;;5067092;28;20036;-82
2022/08/31 10:13:52;;;;;;;6.43;1.30;;;31.80;48.60;;;;;;5064584;28;20020;-83
2022/08/31 10:16:29;;;;;;;2.97;1.48;;;31.90;48.50;;;;;;5067479;28;20035;-82
2022/08/31 10:19:04;;;;;;;3.53;1.35;;;32.20;48.70;;;;;;5066542;28;20049;-82
2022/08/31 10:21:53;;;;;;;3.50;1.38;;;32.00;48.00;;;;;;5066606;28;20145;-83
2022/08/31 10:24:35;;;;;;;3.90;1.15;;;31.90;47.20;;;;;;5066437;28;20686;-82
2022/08/31 10:27:31;;;;;;;3.75;1.60;;;31.70;49.10;;;;;;5067099;28;20025;-82
2022/08/31 10:30:05;;;;;;;7.55;1.40;;;31.30;50.00;;;;;;5066315;28;20044;-86
2022/08/31 10:32:52;;;;;;;5.63;1.10;;;31.00;49.00;;;;;;5066599;28;20033;-85
2022/08/31 10:35:36;;;;;;;3.17;1.40;;;30.50;50.10;;;;;;5066301;28;20060;-85
2022/08/31 10:38:25;;;;;;;8.50;1.42;;;30.40;51.20;;;;;;5066921;28;20242;-86
2022/08/31 10:41:02;;;;;;;4.47;1.10;;;30.50;51.10;;;;;;5066658;28;20029;-86
2022/08/31 10:43:38;;;;;;;2.10;1.30;;;30.40;51.30;;;;;;5066656;28;20036;-85
2022/08/31 10:46:05;;;;;;;3.58;1.60;;;30.30;51.30;;;;;;5067338;28;20055;-85
2022/08/31 10:48:31;;;;;;;4.03;1.58;;;30.20;51.60;;;;;;5067864;28;20093;-86
2022/08/31 10:51:05;;;;;;;3.15;1.08;;;30.30;52.20;;;;;;5066368;28;20485;-85
2022/08/31 10:53:37;;;;;;;2.70;1.42;;;30.20;52.30;;;;;;5067098;28;20044;-84
2022/08/31 10:56:14;;;;;;;3.25;1.40;;;30.20;52.50;;;;;;5067150;28;20024;-86
2022/08/31 10:58:46;;;;;;;2.15;1.40;;;30.20;52.20;;;;;;5066964;28;20036;-85
2022/08/31 11:01:19;;;;;;;3.17;1.48;;;29.90;52.50;;;;;;5070861;28;20033;-85
2022/08/31 11:04:20;;;;;;;2.25;1.13;;;29.90;52.90;;;;;;5070171;28;20603;-85
2022/08/31 11:07:11;;;;;;;3.50;1.42;;;29.70;52.30;;;;;;5071003;28;20050;-85
2022/08/31 11:09:49;;;;;;;2.97;1.48;;;29.40;54.20;;;;;;5069074;28;20027;-83
2022/08/31 11:12:20;;;;;;;2.10;1.20;;;29.20;55.80;;;;;;5068913;28;20032;-82
2022/08/31 11:14:59;;;;;;;2.35;1.48;;;29.10;55.90;;;;;;5068850;28;20028;-83
2022/08/31 11:17:43;;;;;;;3.13;1.60;;;29.20;56.00;;;;;;5069148;28;20181;-81
2022/08/31 11:20:39;;;;;;;2.53;1.30;;;29.40;56.30;;;;;;5070124;28;20120;-82
2022/08/31 11:23:05;;;;;;;2.45;1.42;;;29.20;55.30;;;;;;5067587;28;20397;-83
2022/08/31 11:26:27;;;;;;;2.80;1.30;;;29.30;56.10;;;;;;5068944;28;20036;-83
2022/08/31 11:29:13;;;;;;;2.90;1.55;;;29.10;55.50;;;;;;5069571;28;20037;-82
2022/08/31 11:31:41;;;;;;;2.30;1.13;;;29.00;55.40;;;;;;5069048;28;20032;-84
2022/08/31 11:34:24;;;;;;;3.40;1.27;;;28.80;56.10;;;;;;5069884;28;20508;-83
2022/08/31 11:37:02;;;;;;;3.67;1.60;;;28.90;57.10;;;;;;5069832;28;20409;-83
2022/08/31 11:39:34;;;;;;;7.28;2.05;;;28.70;57.80;;;;;;5071268;28;20385;-83
2022/08/31 11:42:11;;;;;;;4.68;1.67;;;28.70;57.50;;;;;;5083615;28;20511;-83
2022/08/31 11:44:38;;;;;;;2.60;1.27;;;28.70;57.40;;;;;;5091003;28;20042;-83
2022/08/31 11:47:28;;;;;;;2.67;1.13;;;28.60;58.10;;;;;;5075487;28;20036;-83
2022/08/31 11:50:04;;;;;;;5.68;1.42;;;28.50;56.70;;;;;;5069766;28;20024;-84
2022/08/31 11:52:37;;;;;;;5.43;2.30;;;28.40;57.60;;;;;;5069742;28;20028;-83
2022/08/31 11:55:23;;;;;;;2.58;1.30;;;28.30;58.10;;;;;;5069083;28;20028;-82
2022/08/31 11:58:10;;;;;;;2.17;1.35;;;28.30;57.50;;;;;;5068788;28;20035;-83
2022/08/31 12:00:47;;;;;;;3.00;1.30;;;28.30;58.60;;;;;;5069031;28;20028;-82
2022/08/31 12:03:50;;;;;;;4.85;1.48;;;28.20;58.20;;;;;;5068534;28;20515;-83
2022/08/31 12:06:26;;;;;;;4.68;1.67;;;28.10;58.60;;;;;;5047999;28;20505;-82
2022/08/31 12:09:13;;;;;;;2.20;1.27;;;28.10;58.20;;;;;;5069188;28;20039;-82
2022/08/31 12:11:51;;;;;;;3.83;1.60;;;28.20;58.80;;;;;;5067261;28;20508;-83
2022/08/31 12:15:08;;;;;;;5.03;1.85;;;28.30;57.80;;;;;;5068597;28;20027;-83
2022/08/31 12:17:56;;;;;;;7.47;1.77;;;28.40;57.90;;;;;;5050754;28;20062;-82
2022/08/31 12:20:27;;;;;;;5.43;1.60;;;28.60;57.60;;;;;;5068737;28;20519;-82
2022/08/31 12:23:36;;;;;;;3.00;1.65;;;28.90;57.30;;;;;;5068914;28;20043;-83
2022/08/31 12:26:37;;;;;;;5.10;1.50;;;29.30;57.50;;;;;;5067336;28;20032;-83
2022/08/31 12:29:26;;;;;;;2.58;1.60;;;29.50;56.30;;;;;;5033839;28;20115;-83
2022/08/31 12:32:19;;;;;;;2.70;1.55;;;29.60;56.90;;;;;;5068212;28;20039;-83
2022/08/31 12:35:08;;;;;;;6.78;1.63;;;29.70;56.40;;;;;;5068190;28;20115;-83
2022/08/31 12:37:36;;;;;;;2.65;1.48;;;29.80;55.80;;;;;;5068490;28;20409;-83
2022/08/31 12:40:09;;;;;;;2.28;1.67;;;29.70;55.40;;;;;;5068072;28;20031;-83
2022/08/31 12:42:59;;;;;;;2.50;1.77;;;29.50;56.00;;;;;;5068047;28;20130;-84
2022/08/31 12:46:03;;;;;;;3.15;1.55;;;29.30;56.00;;;;;;5069057;28;20311;-83
2022/08/31 12:48:50;;;;;;;2.22;1.05;;;29.10;56.10;;;;;;5068667;28;20809;-84
2022/08/31 12:51:31;;;;;;;3.83;1.17;;;28.70;56.90;;;;;;5068120;28;20017;-82
2022/08/31 12:54:26;;;;;;;8.63;1.75;;;28.70;57.20;;;;;;5069515;28;20036;-83
2022/08/31 12:57:04;;;;;;;3.00;1.45;;;28.80;57.70;;;;;;5068759;28;20032;-83
2022/08/31 13:00:08;;;;;;;4.97;1.67;;;28.70;57.60;;;;;;5068370;28;20024;-83
2022/08/31 13:02:41;;;;;;;3.60;1.45;;;28.70;56.80;;;;;;5027566;28;20458;-83
2022/08/31 13:05:21;;;;;;;3.13;1.63;;;28.60;58.30;;;;;;5060013;28;20035;-83
2022/08/31 13:07:47;;;;;;;4.22;1.25;;;28.40;57.60;;;;;;5067773;28;20028;-83
2022/08/31 13:10:26;;;;;;;3.63;1.50;;;28.20;58.20;;;;;;5066650;28;20775;-83
2022/08/31 13:12:57;;;;;;;3.25;1.20;;;28.10;57.40;;;;;;5068111;28;20024;-84
2022/08/31 13:15:34;;;;;;;4.80;1.40;;;27.90;58.00;;;;;;5067594;28;20595;-83
2022/08/31 13:18:01;;;;;;;4.60;1.33;;;27.80;58.30;;;;;;5068882;28;20524;-83
2022/08/31 13:20:42;;;;;;;2.92;1.52;;;27.80;58.50;;;;;;5067857;28;20657;-85